Time;durP1;ratioP1;P1;durP2;ratioP2;P2;SDS_P1;SDS_P2;PMS_P1;PMS_P2;Temp;Humidity;BMP_temperature;BMP_pressure;BME280_temperature;BME280_humidity;BME280_pressure;Samples;Min_cycle;Max_cycle;Signal;HPM_P1;HPM_P2
2023/06/25 00:00:36;;;;;;;5.78;3.55;;;;;;;22.16;100.00;99045.28;5036398;28;20206;-83
2023/06/25 00:03:04;;;;;;;6.10;3.70;;;;;;;22.15;100.00;99046.28;5035788;28;20714;-83
2023/06/25 00:05:31;;;;;;;7.55;3.30;;;;;;;22.13;100.00;99043.06;5034724;28;20231;-83
2023/06/25 00:07:58;;;;;;;5.78;3.03;;;;;;;22.15;100.00;99046.28;5035151;28;20192;-83
2023/06/25 00:10:25;;;;;;;7.60;3.15;;;;;;;22.02;100.00;99043.56;5034574;28;20230;-83
2023/06/25 00:12:52;;;;;;;5.60;3.30;;;;;;;21.96;100.00;99046.91;5034013;28;20226;-82
2023/06/25 00:15:19;;;;;;;4.60;3.20;;;;;;;21.92;100.00;99056.88;5034233;28;20210;-82
2023/06/25 00:17:47;;;;;;;6.50;3.42;;;;;;;21.91;100.00;99063.88;5034181;28;20219;-82
2023/06/25 00:20:16;;;;;;;7.10;3.42;;;;;;;21.90;100.00;99062.28;5034333;28;20657;-83
2023/06/25 00:22:43;;;;;;;6.80;2.75;;;;;;;21.97;100.00;99079.78;5036704;28;20219;-82
2023/06/25 00:25:10;;;;;;;4.25;2.97;;;;;;;22.04;100.00;99083.22;5040120;28;20242;-83
2023/06/25 00:27:37;;;;;;;8.10;3.07;;;;;;;22.10;100.00;99085.09;5038063;28;20212;-83
2023/06/25 00:30:04;;;;;;;6.18;3.30;;;;;;;22.09;100.00;99078.28;5037141;28;20258;-83
2023/06/25 00:32:31;;;;;;;6.28;3.28;;;;;;;22.06;100.00;99083.88;5036935;28;20224;-83
2023/06/25 00:34:59;;;;;;;6.97;3.47;;;;;;;22.08;100.00;99087.09;5036819;28;20214;-83
2023/06/25 00:37:27;;;;;;;6.53;3.75;;;;;;;22.07;100.00;99106.28;5035889;28;20228;-83
2023/06/25 00:39:54;;;;;;;6.05;3.30;;;;;;;22.05;100.00;99103.06;5035609;28;20200;-83
2023/06/25 00:42:21;;;;;;;5.85;2.78;;;;;;;22.05;100.00;99105.66;5035739;28;20228;-83
2023/06/25 00:44:47;;;;;;;5.32;3.25;;;;;;;21.96;100.00;99106.78;5034572;28;20238;-83
2023/06/25 00:47:17;;;;;;;7.10;3.33;;;;;;;21.83;100.00;99105.63;5033324;28;20738;-83
2023/06/25 00:49:45;;;;;;;7.22;3.25;;;;;;;21.74;100.00;99119.75;5034086;28;20215;-83
2023/06/25 00:52:13;;;;;;;6.47;3.50;;;;;;;21.80;100.00;99126.84;5033492;28;20219;-83
2023/06/25 00:54:44;;;;;;;5.38;3.30;;;;;;;21.77;100.00;99132.41;5033318;28;20196;-83
2023/06/25 00:57:11;;;;;;;5.50;3.00;;;;;;;21.73;100.00;99131.16;5035840;28;20227;-83
2023/06/25 00:59:41;;;;;;;5.32;3.38;;;;;;;21.70;100.00;99141.94;5035887;28;20224;-83
2023/06/25 01:02:18;;;;;;;9.00;3.35;;;;;;;21.64;100.00;99146.06;5036705;28;20235;-82
2023/06/25 01:04:53;;;;;;;7.13;3.42;;;;;;;21.60;100.00;99146.59;5034525;28;20236;-83
2023/06/25 01:07:25;;;;;;;6.90;3.45;;;;;;;21.60;100.00;99147.41;5034906;28;20222;-83
2023/06/25 01:09:55;;;;;;;4.33;3.17;;;;;;;21.52;100.00;99144.09;5033866;28;20560;-83
2023/06/25 01:12:22;;;;;;;6.37;2.90;;;;;;;21.51;100.00;99147.69;5033887;28;20250;-83
2023/06/25 01:14:50;;;;;;;5.37;2.93;;;;;;;21.38;100.00;99143.09;5033518;28;20210;-82
2023/06/25 01:17:17;;;;;;;5.47;3.03;;;;;;;21.27;100.00;99141.72;5033106;28;20278;-83
2023/06/25 01:19:45;;;;;;;7.03;3.30;;;;;;;21.26;100.00;99132.28;5032876;28;20746;-83
2023/06/25 01:22:14;;;;;;;6.67;3.00;;;;;;;21.20;100.00;99133.81;5033201;28;20446;-83
2023/06/25 01:24:44;;;;;;;7.17;3.20;;;;;;;21.21;100.00;99132.03;5033573;28;20313;-83
2023/06/25 01:27:12;;;;;;;7.33;3.30;;;;;;;21.20;100.00;99146.00;5035646;28;20233;-84
2023/06/25 01:29:39;;;;;;;7.80;3.13;;;;;;;21.19;100.00;99145.19;5035497;28;20230;-83
2023/06/25 01:32:07;;;;;;;9.50;3.20;;;;;;;21.17;100.00;99141.16;5035611;28;20228;-83
2023/06/25 01:34:34;;;;;;;5.37;3.17;;;;;;;21.16;100.00;99149.97;5034662;28;20632;-83
2023/06/25 01:37:01;;;;;;;8.07;3.23;;;;;;;21.24;100.00;99153.28;5034253;28;20277;-83
2023/06/25 01:39:28;;;;;;;5.70;2.70;;;;;;;21.25;100.00;99144.50;5034361;28;20203;-83
2023/06/25 01:41:56;;;;;;;5.50;2.83;;;;;;;21.23;100.00;99150.84;5034021;28;20245;-83
2023/06/25 01:44:27;;;;;;;6.50;3.13;;;;;;;21.27;100.00;99154.72;5033670;28;20333;-84
2023/06/25 01:46:54;;;;;;;8.83;3.37;;;;;;;21.22;100.00;99150.03;5032556;28;20806;-83
2023/06/25 01:49:21;;;;;;;7.40;2.90;;;;;;;21.21;100.00;99148.44;5032864;28;20200;-83
2023/06/25 01:51:48;;;;;;;6.83;3.40;;;;;;;21.19;100.00;99139.19;5032129;28;20617;-83
2023/06/25 01:54:16;;;;;;;6.50;3.20;;;;;;;21.21;100.00;99143.25;5032246;28;20224;-83
2023/06/25 01:56:43;;;;;;;7.40;3.43;;;;;;;21.25;100.00;99143.69;5034057;28;20219;-83
2023/06/25 01:59:13;;;;;;;6.70;3.40;;;;;;;21.23;100.00;99141.28;5036715;28;20207;-83
2023/06/25 02:01:40;;;;;;;5.40;3.27;;;;;;;21.25;100.00;99143.69;5036399;28;20235;-83
2023/06/25 02:04:07;;;;;;;7.00;3.63;;;;;;;21.16;100.00;99144.75;5035274;28;20206;-84
2023/06/25 02:06:34;;;;;;;8.03;3.77;;;;;;;21.29;100.00;99150.13;5034383;28;20710;-83
2023/06/25 02:09:01;;;;;;;7.63;3.90;;;;;;;21.21;100.00;99147.63;5033835;28;20239;-83
2023/06/25 02:11:28;;;;;;;6.90;3.93;;;;;;;21.22;100.00;99144.03;5033512;28;20738;-83
2023/06/25 02:13:55;;;;;;;8.17;4.13;;;;;;;21.27;100.00;99146.13;5033327;28;20213;-83
2023/06/25 02:16:23;;;;;;;6.03;3.57;;;;;;;21.29;100.00;99139.72;5032695;28;20247;-82
2023/06/25 02:18:52;;;;;;;7.50;3.73;;;;;;;21.29;100.00;99146.72;5032511;28;20480;-83
2023/06/25 02:21:19;;;;;;;10.10;4.33;;;;;;;21.35;100.00;99144.25;5032130;28;20223;-83
2023/06/25 02:23:46;;;;;;;7.13;4.47;;;;;;;21.38;100.00;99138.72;5032036;28;20212;-82
2023/06/25 02:26:13;;;;;;;9.03;4.60;;;;;;;21.37;100.00;99142.28;5032159;28;20251;-83
2023/06/25 02:28:40;;;;;;;9.53;4.20;;;;;;;21.31;100.00;99142.97;5031727;28;20675;-82
2023/06/25 02:31:07;;;;;;;9.23;4.47;;;;;;;21.37;100.00;99137.09;5034329;28;20227;-83
2023/06/25 02:33:35;;;;;;;8.67;4.37;;;;;;;21.39;100.00;99140.31;5038868;28;20202;-83
2023/06/25 02:36:03;;;;;;;10.87;4.47;;;;;;;21.42;100.00;99144.34;5035412;28;20623;-83
2023/06/25 02:38:30;;;;;;;6.80;4.57;;;;;;;21.43;100.00;99135.56;5035449;28;20208;-83
2023/06/25 02:40:57;;;;;;;8.43;4.10;;;;;;;21.43;100.00;99141.56;5035471;28;20234;-83
2023/06/25 02:43:23;;;;;;;11.90;4.60;;;;;;;21.46;100.00;99141.19;5033566;28;20211;-83
2023/06/25 02:45:50;;;;;;;9.20;4.67;;;;;;;21.45;100.00;99136.19;5032546;28;20630;-83
2023/06/25 02:48:17;;;;;;;7.17;3.97;;;;;;;21.41;100.00;99143.56;5032376;28;20200;-83
2023/06/25 02:50:46;;;;;;;9.43;4.53;;;;;;;21.39;100.00;99142.13;5032276;28;20231;-83
2023/06/25 02:53:13;;;;;;;6.73;4.07;;;;;;;21.41;100.00;99140.97;5031696;28;20241;-83
2023/06/25 02:55:40;;;;;;;11.37;4.17;;;;;;;21.41;100.00;99143.56;5031390;28;20207;-83
2023/06/25 02:58:07;;;;;;;7.83;3.80;;;;;;;21.40;100.00;99138.53;5030952;28;20204;-82
2023/06/25 03:00:34;;;;;;;9.43;4.50;;;;;;;21.39;100.00;99140.31;5034212;28;20204;-83
2023/06/25 03:03:01;;;;;;;8.87;4.53;;;;;;;21.35;100.00;99141.66;5039040;28;20805;-83
2023/06/25 03:05:28;;;;;;;6.33;4.10;;;;;;;21.32;100.00;99144.59;5036851;28;20699;-83
2023/06/25 03:07:58;;;;;;;9.17;4.20;;;;;;;21.33;100.00;99138.41;5035487;28;20227;-83
2023/06/25 03:10:28;;;;;;;8.57;3.90;;;;;;;21.30;100.00;99136.16;5033985;28;20757;-83
2023/06/25 03:12:55;;;;;;;8.63;3.73;;;;;;;21.34;100.00;99137.41;5034018;28;20241;-83
2023/06/25 03:15:22;;;;;;;6.87;4.03;;;;;;;21.36;100.00;99134.66;5032175;28;20208;-83
2023/06/25 03:17:50;;;;;;;8.53;4.60;;;;;;;21.36;100.00;99127.69;5031419;28;20223;-83
2023/06/25 03:20:17;;;;;;;7.87;3.87;;;;;;;21.35;100.00;99133.84;5031321;28;20710;-83
2023/06/25 03:22:43;;;;;;;7.97;3.80;;;;;;;21.32;100.00;99123.81;5030916;28;20227;-83
2023/06/25 03:25:12;;;;;;;10.47;4.27;;;;;;;21.36;100.00;99122.47;5030778;28;20242;-83
2023/06/25 03:27:39;;;;;;;7.23;4.43;;;;;;;21.38;100.00;99122.28;5030834;28;20723;-83
2023/06/25 03:30:07;;;;;;;8.77;3.93;;;;;;;21.38;100.00;99115.31;5030590;28;20200;-83
2023/06/25 03:32:34;;;;;;;6.37;4.07;;;;;;;21.40;100.00;99121.13;5031052;28;20246;-83
2023/06/25 03:35:01;;;;;;;6.30;3.60;;;;;;;21.44;100.00;99117.19;5033296;28;20200;-83
2023/06/25 03:37:28;;;;;;;7.83;4.43;;;;;;;21.44;100.00;99116.38;5032947;28;20220;-83
2023/06/25 03:39:55;;;;;;;8.97;4.23;;;;;;;21.41;100.00;99114.94;5030880;28;20657;-83
2023/06/25 03:42:23;;;;;;;9.63;3.97;;;;;;;21.39;100.00;99111.72;5030993;28;20227;-83
2023/06/25 03:44:53;;;;;;;12.30;3.87;;;;;;;21.45;100.00;99108.38;5030745;28;20641;-83
2023/06/25 03:47:21;;;;;;;11.23;4.90;;;;;;;21.41;100.00;99111.50;5030627;28;20238;-83
2023/06/25 03:49:48;;;;;;;8.82;4.50;;;;;;;21.41;100.00;99107.16;5030455;28;20207;-83
2023/06/25 03:52:14;;;;;;;7.40;4.17;;;;;;;21.42;100.00;99106.16;5030110;28;20216;-83
2023/06/25 03:54:41;;;;;;;9.63;4.10;;;;;;;21.43;100.00;99105.16;5030376;28;20218;-83
2023/06/25 03:57:08;;;;;;;10.60;4.97;;;;;;;21.41;100.00;99111.50;5030012;28;20255;-83
2023/06/25 03:59:36;;;;;;;8.67;4.70;;;;;;;21.41;100.00;99104.53;5031409;28;20458;-83
2023/06/25 04:02:05;;;;;;;9.67;4.30;;;;;;;21.47;100.00;99095.22;5030419;28;20228;-83
2023/06/25 04:04:31;;;;;;;8.67;4.73;;;;;;;21.49;100.00;99103.63;5030766;28;20211;-84
2023/06/25 04:06:58;;;;;;;9.93;4.83;;;;;;;21.40;100.00;99100.31;5030353;28;20223;-83
2023/06/25 04:09:25;;;;;;;8.93;4.57;;;;;;;21.42;100.00;99103.53;5030709;28;20235;-83
2023/06/25 04:11:52;;;;;;;10.50;5.13;;;;;;;21.47;100.00;99106.41;5030637;28;20216;-83
2023/06/25 04:14:19;;;;;;;8.97;4.50;;;;;;;21.57;100.00;99115.72;5030888;28;20691;-83
2023/06/25 04:16:47;;;;;;;7.40;4.40;;;;;;;21.66;100.00;99109.44;5030438;28;20216;-84
2023/06/25 04:19:14;;;;;;;9.00;4.83;;;;;;;21.63;100.00;99107.19;5029755;28;20204;-83
2023/06/25 04:21:41;;;;;;;9.13;4.50;;;;;;;21.67;100.00;99111.03;5030165;28;20730;-84
2023/06/25 04:24:08;;;;;;;9.48;4.78;;;;;;;21.66;100.00;99114.66;5029748;28;20721;-84
2023/06/25 04:26:35;;;;;;;11.23;4.20;;;;;;;21.65;100.00;99113.03;5029609;28;20236;-83
2023/06/25 04:29:02;;;;;;;9.52;4.53;;;;;;;21.65;100.00;99113.84;5029924;28;20204;-83
2023/06/25 04:31:29;;;;;;;9.80;4.63;;;;;;;21.69;100.00;99115.09;5031004;28;20787;-84
2023/06/25 04:33:57;;;;;;;8.20;4.20;;;;;;;21.65;100.00;99119.06;5031218;28;20203;-83
2023/06/25 04:36:24;;;;;;;10.33;5.20;;;;;;;21.66;100.00;99130.25;5030716;28;20790;-83
2023/06/25 04:38:51;;;;;;;9.10;4.80;;;;;;;21.64;100.00;99127.03;5029916;28;20204;-83
2023/06/25 04:41:18;;;;;;;9.85;5.13;;;;;;;21.69;100.00;99127.28;5033110;28;20254;-83
2023/06/25 04:43:45;;;;;;;10.87;5.63;;;;;;;21.78;100.00;99128.78;5033481;28;20226;-83
2023/06/25 04:46:12;;;;;;;9.77;4.63;;;;;;;21.83;100.00;99131.66;5033143;28;20254;-84
2023/06/25 04:48:40;;;;;;;12.88;5.47;;;;;;;21.90;100.00;99132.56;5033671;28;20211;-83
2023/06/25 04:51:08;;;;;;;11.20;5.40;;;;;;;21.95;100.00;99133.81;5033263;28;20687;-84
2023/06/25 04:53:35;;;;;;;11.27;5.90;;;;;;;21.96;100.00;99138.81;5033125;28;20718;-82
2023/06/25 04:56:02;;;;;;;11.60;5.60;;;;;;;22.10;100.00;99137.16;5032941;28;20331;-81
2023/06/25 04:58:29;;;;;;;9.23;5.38;;;;;;;22.23;100.00;99132.16;5032908;28;20207;-81
2023/06/25 05:00:56;;;;;;;14.02;5.57;;;;;;;22.30;100.00;99122.59;5032866;28;20232;-81
2023/06/25 05:03:23;;;;;;;10.55;5.55;;;;;;;22.36;100.00;99132.25;5035265;28;20382;-81
2023/06/25 05:05:51;;;;;;;9.65;5.30;;;;;;;22.45;100.00;99125.13;5035848;28;20228;-81
2023/06/25 05:08:19;;;;;;;12.68;5.97;;;;;;;22.47;100.00;99132.78;5034612;28;20610;-81
2023/06/25 05:10:46;;;;;;;10.15;5.15;;;;;;;22.38;100.00;99134.69;5034173;28;20207;-81
2023/06/25 05:13:13;;;;;;;16.52;5.47;;;;;;;22.43;100.00;99128.91;5034153;28;20200;-81
2023/06/25 05:15:41;;;;;;;8.55;4.93;;;;;;;22.51;100.00;99134.00;5033168;28;20207;-82
2023/06/25 05:18:08;;;;;;;9.20;5.15;;;;;;;22.57;100.00;99138.47;5032905;28;20672;-81
2023/06/25 05:20:36;;;;;;;9.52;5.43;;;;;;;22.62;100.00;99138.72;5033270;28;20205;-81
2023/06/25 05:23:04;;;;;;;9.68;5.53;;;;;;;22.64;100.00;99149.78;5033150;28;20210;-81
2023/06/25 05:25:33;;;;;;;8.30;5.45;;;;;;;22.66;100.00;99147.78;5032519;28;20232;-81
2023/06/25 05:28:03;;;;;;;10.68;5.35;;;;;;;22.69;100.00;99150.03;5032669;28;20706;-81
2023/06/25 05:30:30;;;;;;;8.93;5.05;;;;;;;22.82;100.00;99151.91;5032432;28;20203;-81
2023/06/25 05:32:57;;;;;;;10.38;5.53;;;;;;;22.97;100.00;99154.47;5033616;28;20231;-82
2023/06/25 05:35:26;;;;;;;11.63;4.82;;;;;;;23.06;100.00;99155.94;5033323;28;20668;-81
2023/06/25 05:37:53;;;;;;;10.95;5.15;;;;;;;23.10;100.00;99148.56;5035146;28;20216;-81
2023/06/25 05:40:20;;;;;;;8.20;4.97;;;;;;;23.17;100.00;99158.03;5033907;28;20200;-82
2023/06/25 05:42:48;;;;;;;6.00;4.28;;;;;;;23.08;100.00;99156.56;5032997;28;20731;-81
2023/06/25 05:45:15;;;;;;;7.15;4.70;;;;;;;23.10;100.00;99154.56;5032430;28;20211;-82
2023/06/25 05:47:42;;;;;;;7.88;4.57;;;;;;;23.32;100.00;99150.09;5032329;28;20220;-82
2023/06/25 05:50:10;;;;;;;6.88;4.05;;;;;;;23.66;100.00;99149.28;5032678;28;20211;-82
2023/06/25 05:52:37;;;;;;;9.35;4.70;;;;;;;23.87;100.00;99150.19;5031560;28;20258;-82
2023/06/25 05:55:04;;;;;;;10.40;4.53;;;;;;;24.09;100.00;99149.06;5032283;28;20601;-82
2023/06/25 05:57:31;;;;;;;7.25;3.90;;;;;;;24.12;100.00;99148.66;5031792;28;20220;-82
2023/06/25 06:00:00;;;;;;;8.15;4.10;;;;;;;24.21;100.00;99154.53;5031815;28;20208;-82
2023/06/25 06:02:27;;;;;;;8.07;4.00;;;;;;;24.37;100.00;99158.56;5033458;28;20655;-81
2023/06/25 06:04:54;;;;;;;6.75;3.78;;;;;;;24.42;100.00;99156.16;5035828;28;20200;-82
2023/06/25 06:07:21;;;;;;;6.85;3.70;;;;;;;24.53;100.00;99160.84;5035551;28;20270;-82
2023/06/25 06:09:48;;;;;;;9.35;4.05;;;;;;;24.67;100.00;99160.84;5034421;28;20204;-82
2023/06/25 06:12:14;;;;;;;7.80;3.75;;;;;;;24.79;100.00;99154.03;5033743;28;20227;-81
2023/06/25 06:14:41;;;;;;;6.88;3.65;;;;;;;24.98;100.00;99161.03;5033541;28;20248;-83
2023/06/25 06:17:09;;;;;;;5.90;3.17;;;;;;;25.18;100.00;99163.69;5032633;28;20216;-82
2023/06/25 06:19:36;;;;;;;6.22;3.40;;;;;;;25.30;100.00;99161.25;5032044;28;20201;-81
2023/06/25 06:22:03;;;;;;;6.70;2.85;;;;;;;25.48;100.00;99158.81;5032085;28;20223;-83
2023/06/25 06:24:30;;;;;;;6.60;3.35;;;;;;;25.71;100.00;99162.72;5031307;28;20675;-82
2023/06/25 06:26:57;;;;;;;7.45;3.20;;;;;;;25.87;100.00;99169.38;5030994;28;20236;-83
2023/06/25 06:29:24;;;;;;;4.82;2.60;;;;;;;25.70;100.00;99163.75;5031354;28;20205;-82
2023/06/25 06:31:51;;;;;;;4.88;2.85;;;;;;;25.71;100.00;99168.81;5031610;28;20242;-82
2023/06/25 06:34:19;;;;;;;6.88;3.35;;;;;;;25.72;100.00;99159.91;5032100;28;20192;-83
2023/06/25 06:36:46;;;;;;;4.70;3.10;;;;;;;25.82;99.34;99158.66;5032864;28;20261;-83
2023/06/25 06:39:15;;;;;;;4.78;2.95;;;;;;;25.93;99.90;99161.47;5032809;28;20311;-82
2023/06/25 06:41:42;;;;;;;4.10;2.90;;;;;;;26.05;96.46;99163.44;5032443;28;20220;-83
2023/06/25 06:44:13;;;;;;;7.20;3.13;;;;;;;26.11;96.77;99166.00;5033277;28;20631;-84
2023/06/25 06:46:41;;;;;;;7.60;3.65;;;;;;;26.21;97.41;99157.72;5032099;28;20708;-84
2023/06/25 06:49:08;;;;;;;4.80;3.08;;;;;;;26.36;97.23;99150.34;5030993;28;20212;-83
2023/06/25 06:51:37;;;;;;;5.40;3.38;;;;;;;26.51;95.97;99146.66;5030807;28;20228;-83
2023/06/25 06:54:04;;;;;;;7.78;2.95;;;;;;;26.66;97.28;99147.16;5030991;28;20744;-83
2023/06/25 06:56:31;;;;;;;4.35;2.92;;;;;;;26.37;93.80;99143.28;5031536;28;20227;-83
2023/06/25 06:58:58;;;;;;;4.25;2.90;;;;;;;26.57;94.71;99145.81;5030720;28;20222;-83
2023/06/25 07:01:25;;;;;;;5.25;3.22;;;;;;;26.64;93.98;99136.84;5030429;28;20231;-83
2023/06/25 07:03:52;;;;;;;5.80;2.90;;;;;;;26.92;93.87;99132.19;5030128;28;20617;-83
2023/06/25 07:06:18;;;;;;;5.20;2.88;;;;;;;27.08;91.40;99126.38;5032271;28;20246;-83
2023/06/25 07:08:47;;;;;;;4.93;3.20;;;;;;;27.14;94.25;99130.78;5034686;28;20200;-83
2023/06/25 07:11:16;;;;;;;4.15;2.83;;;;;;;27.10;90.36;99119.09;5032434;28;20723;-83
2023/06/25 07:13:44;;;;;;;5.60;2.88;;;;;;;27.27;90.41;99124.63;5033750;28;20325;-83
2023/06/25 07:16:11;;;;;;;4.32;3.05;;;;;;;26.98;90.20;99120.84;5032096;28;20227;-83
2023/06/25 07:18:38;;;;;;;5.05;3.10;;;;;;;27.26;95.18;99117.78;5032089;28;20290;-84
2023/06/25 07:21:05;;;;;;;6.25;3.33;;;;;;;27.67;94.12;99117.09;5031605;28;20224;-83
2023/06/25 07:23:32;;;;;;;5.05;3.05;;;;;;;27.96;89.13;99122.59;5030439;28;20520;-81
2023/06/25 07:26:00;;;;;;;5.25;3.00;;;;;;;28.01;87.83;99130.59;5030508;28;20252;-83
2023/06/25 07:28:27;;;;;;;5.85;3.13;;;;;;;28.23;88.64;99127.50;5030625;28;20207;-83
2023/06/25 07:30:54;;;;;;;8.98;2.83;;;;;;;28.37;88.08;99124.44;5030575;28;20716;-82
2023/06/25 07:33:21;;;;;;;6.30;3.35;;;;;;;28.33;86.92;99127.72;5033646;28;20199;-82
2023/06/25 07:35:48;;;;;;;4.53;2.75;;;;;;;28.47;86.68;99128.38;5033582;28;20198;-82
2023/06/25 07:38:15;;;;;;;3.72;2.70;;;;;;;28.50;84.17;99127.91;5032957;28;20213;-82
2023/06/25 07:40:41;;;;;;;4.75;2.85;;;;;;;28.39;80.54;99127.66;5032501;28;20192;-82
2023/06/25 07:43:10;;;;;;;3.97;2.22;;;;;;;28.51;81.91;99117.19;5032103;28;20215;-82
2023/06/25 07:45:38;;;;;;;5.38;2.42;;;;;;;28.47;80.81;99123.91;5030803;28;20208;-83
2023/06/25 07:48:05;;;;;;;5.40;2.70;;;;;;;28.26;79.97;99127.03;5031381;28;20228;-83
2023/06/25 07:50:35;;;;;;;4.30;2.20;;;;;;;28.11;78.77;99123.00;5031070;28;20204;-83
2023/06/25 07:53:02;;;;;;;4.75;2.65;;;;;;;28.57;83.44;99124.16;5030786;28;20192;-82
2023/06/25 07:55:28;;;;;;;4.80;2.50;;;;;;;28.71;78.26;99118.66;5030939;28;20197;-83
2023/06/25 07:57:55;;;;;;;5.70;2.47;;;;;;;28.99;80.67;99110.88;5030313;28;20223;-84
2023/06/25 08:00:24;;;;;;;4.20;2.47;;;;;;;28.71;76.35;99113.41;5030599;28;20283;-85
2023/06/25 08:02:51;;;;;;;4.97;2.30;;;;;;;28.97;80.59;99112.13;5030272;28;20224;-82
2023/06/25 08:05:19;;;;;;;3.92;2.70;;;;;;;29.16;75.08;99116.28;5030629;28;20606;-83
2023/06/25 08:07:46;;;;;;;3.00;2.30;;;;;;;29.53;76.75;99102.81;5038458;28;20282;-83
2023/06/25 08:10:13;;;;;;;4.13;2.47;;;;;;;29.86;82.65;99099.47;5036040;28;20700;-83
2023/06/25 08:12:40;;;;;;;3.38;2.10;;;;;;;30.06;78.14;99096.41;5033526;28;20236;-82
2023/06/25 08:15:07;;;;;;;3.03;1.90;;;;;;;30.14;73.66;99096.03;5034956;28;20211;-82
2023/06/25 08:17:36;;;;;;;3.28;1.70;;;;;;;29.92;69.60;99103.81;5037342;28;20224;-84
2023/06/25 08:20:03;;;;;;;3.25;2.08;;;;;;;29.65;72.88;99097.53;5034871;28;20196;-82
2023/06/25 08:22:29;;;;;;;3.05;2.10;;;;;;;29.85;75.67;99099.75;5035460;28;20662;-83
2023/06/25 08:24:56;;;;;;;61.13;26.27;;;;;;;30.01;73.24;99105.03;5035475;28;20287;-82
2023/06/25 08:27:23;;;;;;;29.98;13.57;;;;;;;30.06;74.58;99088.50;5034205;28;20319;-84
2023/06/25 08:29:50;;;;;;;26.25;12.77;;;;;;;30.29;72.20;99095.50;5034300;28;20200;-83
2023/06/25 08:32:17;;;;;;;33.22;14.35;;;;;;;30.21;69.00;99086.13;5033918;28;20278;-83
2023/06/25 08:34:45;;;;;;;73.55;31.02;;;;;;;30.11;67.57;99082.53;5034490;28;20200;-83
2023/06/25 08:37:12;;;;;;;44.90;16.85;;;;;;;29.90;66.46;99090.06;5036202;28;20695;-82
2023/06/25 08:39:39;;;;;;;13.77;6.95;;;;;;;29.86;63.22;99085.50;5035854;28;20203;-82
2023/06/25 08:42:06;;;;;;;2.10;1.75;;;;;;;29.97;64.29;99068.84;5036512;28;20224;-82
2023/06/25 08:44:33;;;;;;;3.70;1.90;;;;;;;30.03;66.65;99072.38;5035153;28;20211;-82
2023/06/25 08:47:01;;;;;;;2.10;1.63;;;;;;;30.21;62.47;99074.78;5035538;28;20242;-83
2023/06/25 08:49:30;;;;;;;2.42;1.80;;;;;;;30.33;65.83;99072.88;5035412;28;20207;-82
2023/06/25 08:52:00;;;;;;;2.95;2.00;;;;;;;30.18;63.78;99075.25;5033898;28;20329;-82
2023/06/25 08:54:27;;;;;;;3.42;1.95;;;;;;;30.30;62.00;99062.00;5032866;28;20732;-82
2023/06/25 08:56:54;;;;;;;5.40;2.50;;;;;;;30.44;76.47;99048.25;5032817;28;20235;-82
2023/06/25 08:59:22;;;;;;;2.70;2.20;;;;;;;30.63;71.37;99046.16;5033076;28;20200;-84
2023/06/25 09:01:49;;;;;;;3.80;2.22;;;;;;;30.73;66.65;99053.41;5032844;28;20277;-82
2023/06/25 09:04:16;;;;;;;2.58;2.10;;;;;;;30.74;64.86;99046.28;5032864;28;20204;-83
2023/06/25 09:06:43;;;;;;;3.95;2.50;;;;;;;30.73;70.29;99045.47;5035174;28;20247;-83
2023/06/25 09:09:11;;;;;;;6.40;2.58;;;;;;;30.64;70.04;99041.66;5034310;28;20294;-83
2023/06/25 09:11:41;;;;;;;4.43;2.47;;;;;;;31.07;72.82;99040.16;5034228;28;20638;-83
2023/06/25 09:14:08;;;;;;;4.30;2.60;;;;;;;31.19;70.20;99038.16;5033972;28;20222;-83
2023/06/25 09:16:47;;;;;;;4.30;2.60;;;;;;;31.33;67.85;99049.97;5033030;28;20323;-81
2023/06/25 09:19:18;;;;;;;3.72;2.63;;;;;;;31.26;62.61;99049.34;5033522;28;20278;-83
2023/06/25 09:21:46;;;;;;;4.53;2.35;;;;;;;31.31;66.92;99046.75;5032911;28;20282;-82
2023/06/25 09:24:16;;;;;;;3.22;2.55;;;;;;;31.41;68.43;99040.81;5033296;28;20207;-82
2023/06/25 09:26:47;;;;;;;3.15;2.33;;;;;;;31.56;66.63;99045.44;5031851;28;20238;-82
2023/06/25 09:29:15;;;;;;;4.80;2.70;;;;;;;31.49;63.30;99037.72;5032509;28;20209;-81
2023/06/25 09:31:43;;;;;;;3.30;2.40;;;;;;;31.32;62.67;99037.78;5032423;28;20728;-83
2023/06/25 09:34:10;;;;;;;4.00;2.75;;;;;;;31.32;65.93;99032.50;5032258;28;20637;-83
2023/06/25 09:36:36;;;;;;;4.03;2.67;;;;;;;31.69;66.22;99031.84;5035177;28;20303;-81
2023/06/25 09:39:04;;;;;;;4.70;2.55;;;;;;;31.63;65.24;99030.19;5033575;28;20204;-82
2023/06/25 09:41:34;;;;;;;3.58;2.67;;;;;;;31.74;65.89;99033.75;5034279;28;20298;-82
2023/06/25 09:44:04;;;;;;;4.43;3.05;;;;;;;31.45;63.44;99030.56;5035167;28;20208;-82
2023/06/25 09:46:34;;;;;;;4.55;2.90;;;;;;;31.21;64.63;99033.41;5031971;28;20228;-82
2023/06/25 09:49:02;;;;;;;7.47;2.80;;;;;;;31.07;64.23;99033.03;5032740;28;20253;-82
2023/06/25 09:51:32;;;;;;;6.65;2.95;;;;;;;30.82;64.57;99017.66;5031935;28;20224;-81
2023/06/25 09:54:03;;;;;;;4.50;2.95;;;;;;;31.16;68.46;99025.47;5032687;28;20722;-82
2023/06/25 09:56:34;;;;;;;2.95;2.33;;;;;;;31.50;66.72;99017.38;5032003;28;20232;-82
2023/06/25 09:59:02;;;;;;;4.90;2.40;;;;;;;31.86;63.69;99017.72;5032490;28;20262;-82
2023/06/25 10:01:29;;;;;;;7.13;2.70;;;;;;;31.75;62.50;99020.25;5031430;28;20311;-83
2023/06/25 10:03:56;;;;;;;5.03;2.53;;;;;;;32.13;65.27;99015.84;5032094;28;20200;-82
2023/06/25 10:06:23;;;;;;;3.63;2.60;;;;;;;32.05;58.31;99016.28;5036359;28;20242;-81
2023/06/25 10:08:51;;;;;;;3.53;2.42;;;;;;;31.77;58.15;99012.09;5032339;28;20230;-82
2023/06/25 10:11:18;;;;;;;3.67;2.40;;;;;;;31.85;57.83;99011.59;5033758;28;20223;-82
2023/06/25 10:13:48;;;;;;;3.75;2.40;;;;;;;31.90;58.76;99006.41;5034468;28;20204;-82
2023/06/25 10:16:19;;;;;;;4.85;2.92;;;;;;;31.94;57.29;99011.97;5032963;28;20759;-82
2023/06/25 10:18:47;;;;;;;5.22;2.50;;;;;;;31.94;57.94;99010.16;5034538;28;20270;-82
2023/06/25 10:21:20;;;;;;;4.18;2.53;;;;;;;31.93;59.24;99005.09;5032271;28;20220;-83
2023/06/25 10:24:00;;;;;;;4.18;2.63;;;;;;;32.06;57.66;99001.22;5031951;28;20219;-83
2023/06/25 10:26:29;;;;;;;2.97;2.50;;;;;;;32.09;55.91;99013.97;5031355;28;20223;-82
2023/06/25 10:29:01;;;;;;;4.88;2.83;;;;;;;32.32;57.31;99002.19;5032009;28;20232;-82
2023/06/25 10:31:37;;;;;;;5.07;3.08;;;;;;;31.78;53.40;99009.19;5031237;28;20789;-81
2023/06/25 10:34:07;;;;;;;5.22;2.70;;;;;;;31.90;55.12;99002.94;5031606;28;20204;-82
2023/06/25 10:36:33;;;;;;;3.30;2.60;;;;;;;32.09;53.54;98998.88;5031039;28;20634;-83
2023/06/25 10:39:01;;;;;;;3.55;2.50;;;;;;;32.00;53.98;99005.69;5031619;28;20211;-83
2023/06/25 10:41:28;;;;;;;3.50;2.58;;;;;;;32.01;57.96;98991.41;5036669;28;20236;-83
2023/06/25 10:43:57;;;;;;;3.95;2.70;;;;;;;32.07;56.12;98995.69;5034233;28;20207;-83
2023/06/25 10:46:31;;;;;;;5.35;2.55;;;;;;;32.04;56.43;98996.19;5032948;28;20223;-82
2023/06/25 10:49:00;;;;;;;3.90;2.40;;;;;;;32.29;52.80;98992.13;5032762;28;20693;-82
2023/06/25 10:51:27;;;;;;;3.88;2.70;;;;;;;32.27;53.13;98988.94;5032584;28;20617;-82
2023/06/25 10:53:55;;;;;;;4.22;2.40;;;;;;;32.20;53.61;98989.16;5031954;28;20215;-82
2023/06/25 10:56:22;;;;;;;3.50;2.20;;;;;;;32.23;53.37;98986.81;5031836;28;20232;-83
2023/06/25 10:58:57;;;;;;;3.25;2.47;;;;;;;32.18;51.26;98986.78;5031334;28;20227;-82
2023/06/25 11:01:24;;;;;;;4.45;2.67;;;;;;;31.94;57.37;98985.53;5031044;28;20223;-84
2023/06/25 11:03:51;;;;;;;3.67;2.42;;;;;;;32.12;56.47;98977.22;5031165;28;20204;-83
2023/06/25 11:06:18;;;;;;;3.60;2.70;;;;;;;32.07;56.05;98974.53;5030418;28;20757;-83
2023/06/25 11:08:47;;;;;;;4.18;2.75;;;;;;;32.32;61.08;98975.72;5030779;28;20243;-82
2023/06/25 11:11:14;;;;;;;5.93;2.50;;;;;;;32.38;56.69;98966.78;5032919;28;20224;-83
2023/06/25 11:13:41;;;;;;;3.70;2.53;;;;;;;32.54;55.84;98962.38;5033767;28;20766;-83
2023/06/25 11:16:10;;;;;;;3.70;2.53;;;;;;;32.60;62.23;98962.16;5033834;28;20223;-83
2023/06/25 11:18:37;;;;;;;2.92;2.42;;;;;;;32.68;58.46;98956.38;5033184;28;20208;-83
2023/06/25 11:21:06;;;;;;;3.92;2.78;;;;;;;32.53;54.81;98956.31;5032338;28;20231;-83
2023/06/25 11:23:33;;;;;;;3.53;2.53;;;;;;;32.65;57.45;98943.66;5032324;28;20231;-83
2023/06/25 11:26:05;;;;;;;5.07;2.55;;;;;;;32.45;54.11;98948.84;5031421;28;20228;-83
2023/06/25 11:28:37;;;;;;;3.10;2.30;;;;;;;32.62;54.07;98938.88;5031707;28;20232;-83